createdAt,value
2023-04-28T00:01:36.087Z,100354.03
2023-04-28T00:04:10.347Z,100353.19
2023-04-28T00:06:41.699Z,100349.28
2023-04-28T00:09:11.563Z,100353.44
2023-04-28T00:11:39.668Z,100352.16
2023-04-28T00:14:07.681Z,100354.81
2023-04-28T00:16:36.567Z,100358.09
2023-04-28T00:19:04.986Z,100345.34
2023-04-28T00:21:34.296Z,100351.19
2023-04-28T00:24:02.446Z,100349.69
2023-04-28T00:26:30.581Z,100353.97
2023-04-28T00:28:58.647Z,100345.34
2023-04-28T00:31:26.758Z,100352.16
2023-04-28T00:33:57.401Z,100358.50
2023-04-28T00:36:26.021Z,100359.13
2023-04-28T00:39:04.515Z,100360.41
2023-04-28T00:41:36.020Z,100359.25
2023-04-28T00:44:16.085Z,100362.22
2023-04-28T00:46:44.303Z,100352.56
2023-04-28T00:49:18.358Z,100342.38
2023-04-28T00:51:46.452Z,100350.88
2023-04-28T00:54:15.211Z,100349.91
2023-04-28T00:56:48.034Z,100345.34
2023-04-28T00:59:17.538Z,100360.19
2023-04-28T01:01:46.426Z,100363.81
2023-04-28T01:04:14.914Z,100359.13
2023-04-28T01:06:45.163Z,100364.03
2023-04-28T01:09:13.610Z,100365.84
2023-04-28T01:11:42.428Z,100370.47
2023-04-28T01:14:20.090Z,100370.59
2023-04-28T01:16:52.912Z,100380.47
2023-04-28T01:19:25.173Z,100381.63
2023-04-28T01:21:54.028Z,100377.81
2023-04-28T01:24:23.282Z,100378.84
2023-04-28T01:26:51.666Z,100386.72
2023-04-28T01:29:19.616Z,100392.56
2023-04-28T01:31:47.732Z,100389.25
2023-04-28T01:34:15.976Z,100383.53
2023-04-28T01:36:44.028Z,100387.44
2023-04-28T01:39:12.737Z,100391.34
2023-04-28T01:41:42.840Z,100392.84
2023-04-28T01:44:22.665Z,100396.47
2023-04-28T01:46:50.830Z,100412.38
2023-04-28T01:49:21.338Z,100412.03
2023-04-28T01:51:49.166Z,100406.44
2023-04-28T01:54:17.148Z,100407.28
2023-04-28T01:56:48.289Z,100401.88
2023-04-28T01:59:21.392Z,100409.63
2023-04-28T02:01:49.878Z,100401.97
2023-04-28T02:04:18.515Z,100409.81
2023-04-28T02:06:47.060Z,100405.19
2023-04-28T02:09:21.454Z,100406.31
2023-04-28T02:11:55.932Z,100406.22
2023-04-28T02:14:24.110Z,100406.22
2023-04-28T02:16:52.161Z,100413.53
2023-04-28T02:19:22.874Z,100419.41
2023-04-28T02:21:52.390Z,100427.03
2023-04-28T02:24:20.491Z,100436.34
2023-04-28T02:26:48.436Z,100430.59
2023-04-28T02:29:16.724Z,100440.81
2023-04-28T02:31:44.933Z,100452.59
2023-04-28T02:34:12.985Z,100446.53
2023-04-28T02:36:40.987Z,100452.06
2023-04-28T02:39:08.950Z,100447.28
2023-04-28T02:41:36.747Z,100453.94
2023-04-28T02:44:05.575Z,100452.06
2023-04-28T02:46:33.705Z,100458.66
2023-04-28T02:49:01.829Z,100456.66
2023-04-28T02:51:29.960Z,100453.66
2023-04-28T02:53:58.045Z,100457.72
2023-04-28T02:56:26.747Z,100457.72
2023-04-28T02:58:54.836Z,100453.13
2023-04-28T03:01:23.845Z,100453.47
2023-04-28T03:03:54.643Z,100455.28
2023-04-28T03:06:23.083Z,100449.47
2023-04-28T03:08:51.394Z,100446.03
2023-04-28T03:11:22.087Z,100445.91
2023-04-28T03:14:01.579Z,100447.72
2023-04-28T03:16:31.105Z,100451.75
2023-04-28T03:18:58.918Z,100447.41
2023-04-28T03:21:28.100Z,100445.59
2023-04-28T03:24:01.978Z,100449.94
2023-04-28T03:26:32.970Z,100447.28
2023-04-28T03:29:01.421Z,100447.16
2023-04-28T03:31:30.292Z,100445.47
2023-04-28T03:34:00.697Z,100449.09
2023-04-28T03:36:29.540Z,100434.47
2023-04-28T03:39:03.438Z,100430.31
2023-04-28T03:41:36.764Z,100425.84
2023-04-28T03:44:37.273Z,100416.41
2023-04-28T03:47:07.557Z,100414.78
2023-04-28T03:49:37.502Z,100408.34
2023-04-28T03:52:08.234Z,100399.56
2023-04-28T03:54:41.673Z,100390.75
2023-04-28T03:57:10.956Z,100390.31
2023-04-28T03:59:39.209Z,100391.44
2023-04-28T04:02:08.416Z,100400.69
2023-04-28T04:04:36.681Z,100399.84
2023-04-28T04:07:05.389Z,100398.78
2023-04-28T04:09:33.849Z,100382.25
2023-04-28T04:12:02.480Z,100385.84
2023-04-28T04:14:31.065Z,100373.75
2023-04-28T04:17:02.069Z,100385.41
2023-04-28T04:19:30.605Z,100382.22
2023-04-28T04:21:58.945Z,100384.84
2023-04-28T04:24:27.021Z,100388.75
2023-04-28T04:26:55.801Z,100384.63
2023-04-28T04:29:33.003Z,100384.72
2023-04-28T04:32:04.553Z,100397.66
2023-04-28T04:34:32.408Z,100403.81
2023-04-28T04:37:00.464Z,100409.34
2023-04-28T04:39:28.750Z,100413.56
2023-04-28T04:41:56.507Z,100425.28
2023-04-28T04:44:47.822Z,100415.59
2023-04-28T04:47:27.096Z,100411.59
2023-04-28T04:49:55.476Z,100416.31
2023-04-28T04:52:24.206Z,100411.19
2023-04-28T04:54:52.419Z,100423.31
2023-04-28T04:57:20.290Z,100418.34
2023-04-28T05:00:07.618Z,100413.31
2023-04-28T05:02:35.969Z,100431.66
2023-04-28T05:05:19.712Z,100425.06
2023-04-28T05:07:58.389Z,100430.38
2023-04-28T05:10:27.842Z,100424.50
2023-04-28T05:12:56.314Z,100436.81
2023-04-28T05:15:24.548Z,100433.53
2023-04-28T05:18:18.625Z,100442.13
2023-04-28T05:20:53.994Z,100438.16
2023-04-28T05:23:25.350Z,100435.91
2023-04-28T05:26:03.287Z,100438.56
2023-04-28T05:28:31.864Z,100448.13
2023-04-28T05:31:02.609Z,100446.13
2023-04-28T05:33:32.307Z,100455.97
2023-04-28T05:38:41.781Z,100448.72
2023-04-28T05:41:09.868Z,100453.16
2023-04-28T05:43:37.857Z,100447.22
2023-04-28T05:46:12.040Z,100445.81
2023-04-28T05:48:43.005Z,100455.28
2023-04-28T05:51:12.069Z,100466.84
2023-04-28T05:53:40.143Z,100463.69
2023-04-28T05:56:08.393Z,100463.97
2023-04-28T05:58:36.405Z,100464.09
2023-04-28T06:01:04.541Z,100460.59
2023-04-28T06:03:32.749Z,100459.41
2023-04-28T06:06:01.057Z,100454.81
2023-04-28T06:08:29.299Z,100457.09
2023-04-28T06:10:57.580Z,100456.13
2023-04-28T06:13:25.781Z,100457.16
2023-04-28T06:15:53.825Z,100446.06
2023-04-28T06:18:21.973Z,100458.19
2023-04-28T06:20:49.835Z,100460.72
2023-04-28T06:23:18.234Z,100465.19
2023-04-28T06:25:49.094Z,100484.28
2023-04-28T06:28:20.918Z,100492.88
2023-04-28T06:30:49.582Z,100500.75
2023-04-28T06:33:17.702Z,100499.97
2023-04-28T06:35:46.226Z,100507.19
2023-04-28T06:38:16.874Z,100512.38
2023-04-28T06:40:46.300Z,100519.38
2023-04-28T06:43:14.615Z,100523.38
2023-04-28T06:45:52.329Z,100529.41
2023-04-28T06:48:20.292Z,100530.91
2023-04-28T06:50:47.957Z,100520.31
2023-04-28T06:53:18.919Z,100527.78
2023-04-28T06:55:47.093Z,100524.50
2023-04-28T06:58:15.678Z,100540.66
2023-04-28T07:00:43.605Z,100543.31
2023-04-28T07:03:11.719Z,100548.94
2023-04-28T07:05:39.967Z,100540.59
2023-04-28T07:08:07.878Z,100556.69
2023-04-28T07:10:36.079Z,100549.00
2023-04-28T07:13:03.872Z,100537.47
2023-04-28T07:15:46.849Z,100550.97
2023-04-28T07:18:20.911Z,100555.16
2023-04-28T07:20:48.698Z,100558.38
2023-04-28T07:23:16.438Z,100552.31
2023-04-28T07:25:47.886Z,100554.59
2023-04-28T07:28:15.881Z,100539.06
2023-04-28T07:30:43.729Z,100541.81
2023-04-28T07:33:11.432Z,100539.81
2023-04-28T07:35:39.219Z,100533.47
2023-04-28T07:38:06.977Z,100528.19
2023-04-28T07:40:34.805Z,100522.94
2023-04-28T07:43:03.855Z,100520.72
2023-04-28T07:45:31.978Z,100515.59
2023-04-28T07:47:59.713Z,100516.34
2023-04-28T07:50:27.613Z,100523.28
2023-04-28T07:52:56.011Z,100526.38
2023-04-28T07:55:23.869Z,100533.66
2023-04-28T07:57:51.621Z,100533.66
2023-04-28T08:00:19.496Z,100531.56
2023-04-28T08:02:47.172Z,100540.38
2023-04-28T08:05:17.214Z,100529.03
2023-04-28T08:07:45.228Z,100519.28
2023-04-28T08:10:12.923Z,100517.25
2023-04-28T08:12:41.287Z,100504.56
2023-04-28T08:15:10.260Z,100505.13
2023-04-28T08:17:39.469Z,100492.94
2023-04-28T08:20:07.723Z,100506.75
2023-04-28T08:22:35.568Z,100514.25
2023-04-28T08:25:03.261Z,100512.22
2023-04-28T08:27:31.082Z,100510.88
2023-04-28T08:29:58.522Z,100500.38
2023-04-28T08:32:26.089Z,100489.25
2023-04-28T08:34:53.870Z,100493.94
2023-04-28T08:37:21.833Z,100491.38
2023-04-28T08:39:49.760Z,100489.16
2023-04-28T08:42:19.271Z,100477.91
2023-04-28T08:44:52.015Z,100482.47
2023-04-28T08:47:22.647Z,100478.75
2023-04-28T08:49:52.285Z,100477.72
2023-04-28T08:52:20.709Z,100474.09
2023-04-28T08:54:50.595Z,100463.69
2023-04-28T08:57:18.715Z,100474.19
2023-04-28T08:59:46.846Z,100473.78
2023-04-28T09:02:15.538Z,100469.66
2023-04-28T09:04:43.460Z,100463.19
2023-04-28T09:07:14.557Z,100452.16
2023-04-28T09:09:42.822Z,100465.75
2023-04-28T09:12:10.407Z,100465.13
2023-04-28T09:14:39.187Z,100466.53
2023-04-28T09:17:14.765Z,100474.06
2023-04-28T09:19:45.510Z,100472.69
2023-04-28T09:24:43.738Z,100477.66
2023-04-28T09:27:12.136Z,100482.25
2023-04-28T09:29:52.087Z,100479.06
2023-04-28T09:32:23.918Z,100481.59
2023-04-28T09:34:54.004Z,100487.25
2023-04-28T09:37:24.030Z,100491.72
2023-04-28T09:39:52.874Z,100476.81
2023-04-28T09:42:42.841Z,100482.13
2023-04-28T09:45:12.914Z,100479.59
2023-04-28T09:47:42.718Z,100484.91
2023-04-28T09:50:12.967Z,100481.72
2023-04-28T09:52:46.955Z,100491.28
2023-04-28T09:55:15.500Z,100489.66
2023-04-28T09:57:47.830Z,100487.13
2023-04-28T10:00:17.708Z,100480.09
2023-04-28T10:02:45.655Z,100477.47
2023-04-28T10:05:17.240Z,100471.31
2023-04-28T10:07:45.256Z,100476.59
2023-04-28T10:10:14.997Z,100468.06
2023-04-28T10:12:44.176Z,100468.91
2023-04-28T10:15:13.171Z,100476.59
2023-04-28T10:17:41.164Z,100478.97
2023-04-28T10:20:09.475Z,100469.56
2023-04-28T10:23:15.214Z,100471.69
2023-04-28T10:25:42.949Z,100473.19
2023-04-28T10:28:11.100Z,100469.03
2023-04-28T10:30:38.965Z,100464.47
2023-04-28T10:33:06.840Z,100465.31
2023-04-28T10:35:44.693Z,100471.13
2023-04-28T10:38:21.921Z,100470.28
2023-04-28T10:41:01.595Z,100469.66
2023-04-28T10:43:31.075Z,100463.81
2023-04-28T10:46:04.888Z,100462.66
2023-04-28T10:48:48.262Z,100450.97
2023-04-28T10:51:15.923Z,100452.38
2023-04-28T10:53:44.822Z,100454.78
2023-04-28T10:56:27.060Z,100456.31
2023-04-28T10:58:56.409Z,100457.72
2023-04-28T11:01:29.787Z,100457.31
2023-04-28T11:04:00.953Z,100452.19
2023-04-28T11:06:43.084Z,100448.56
2023-04-28T11:09:19.917Z,100441.25
2023-04-28T11:12:20.148Z,100433.19
2023-04-28T11:14:48.630Z,100427.13
2023-04-28T11:17:19.540Z,100429.78
2023-04-28T11:19:48.881Z,100425.63
2023-04-28T11:22:21.184Z,100429.25
2023-04-28T11:25:02.674Z,100424.91
2023-04-28T11:27:32.432Z,100426.38
2023-04-28T11:30:01.731Z,100417.44
2023-04-28T11:32:30.948Z,100413.94
2023-04-28T11:34:58.888Z,100409.47
2023-04-28T11:37:27.478Z,100408.75
2023-04-28T11:39:55.131Z,100404.94
2023-04-28T11:42:25.979Z,100401.44
2023-04-28T11:44:54.833Z,100399.50
2023-04-28T11:47:33.762Z,100393.97
2023-04-28T11:50:03.415Z,100399.50
2023-04-28T11:52:32.216Z,100389.31
2023-04-28T11:55:02.382Z,100387.22
2023-04-28T11:57:30.659Z,100385.41
2023-04-28T12:00:19.486Z,100381.25
2023-04-28T12:02:48.053Z,100375.59
2023-04-28T12:05:15.971Z,100381.66
2023-04-28T12:07:45.716Z,100383.25
2023-04-28T12:10:16.892Z,100381.88
2023-04-28T12:15:19.513Z,100369.13
2023-04-28T12:17:49.293Z,100380.16
2023-04-28T12:20:35.818Z,100370.81
2023-04-28T12:23:03.660Z,100381.97
2023-04-28T12:25:31.392Z,100380.41
2023-04-28T12:28:08.507Z,100387.38
2023-04-28T12:30:44.025Z,100380.38
2023-04-28T12:33:29.099Z,100378.97
2023-04-28T12:35:58.120Z,100365.69
2023-04-28T12:38:27.266Z,100368.00
2023-04-28T12:40:55.249Z,100372.25
2023-04-28T12:43:24.342Z,100371.59
2023-04-28T12:45:53.988Z,100382.75
2023-04-28T12:48:24.111Z,100379.25
2023-04-28T12:50:52.371Z,100381.34
2023-04-28T12:53:20.070Z,100372.00
2023-04-28T12:55:48.219Z,100388.13
2023-04-28T12:58:15.949Z,100389.16
2023-04-28T13:00:43.745Z,100385.97
2023-04-28T13:03:11.578Z,100392.13
2023-04-28T13:05:39.558Z,100392.97
2023-04-28T13:08:07.388Z,100392.75
2023-04-28T13:10:34.989Z,100400.44
2023-04-28T13:13:02.678Z,100406.56
2023-04-28T13:15:31.422Z,100400.09
2023-04-28T13:17:59.986Z,100409.22
2023-04-28T13:20:27.704Z,100411.66
2023-04-28T13:22:55.171Z,100412.63
2023-04-28T13:25:22.776Z,100408.88
2023-04-28T13:27:50.410Z,100413.84
2023-04-28T13:30:18.080Z,100406.06
2023-04-28T13:32:45.971Z,100395.69
2023-04-28T13:35:13.699Z,100386.97
2023-04-28T13:37:45.945Z,100383.56
2023-04-28T13:40:13.774Z,100384.72
2023-04-28T13:42:41.810Z,100383.13
2023-04-28T13:45:09.832Z,100380.56
2023-04-28T13:47:38.474Z,100386.25
2023-04-28T13:50:06.818Z,100383.84
2023-04-28T13:52:34.700Z,100390.25
2023-04-28T13:55:02.402Z,100398.47
2023-04-28T13:57:30.637Z,100390.81
2023-04-28T13:59:58.267Z,100395.06
2023-04-28T14:02:27.560Z,100389.09
2023-04-28T14:04:55.467Z,100394.22
2023-04-28T14:07:24.634Z,100388.47
2023-04-28T14:10:00.176Z,100393.00
2023-04-28T14:12:34.078Z,100394.50
2023-04-28T14:15:01.863Z,100400.56
2023-04-28T14:17:29.838Z,100403.00
2023-04-28T14:19:57.602Z,100419.97
2023-04-28T14:22:25.399Z,100437.06
2023-04-28T14:24:53.657Z,100451.34
2023-04-28T14:27:22.499Z,100450.41
2023-04-28T14:29:51.162Z,100442.75
2023-04-28T14:32:22.117Z,100445.13
2023-04-28T14:34:51.242Z,100449.47
2023-04-28T14:37:22.156Z,100442.47
2023-04-28T14:40:01.533Z,100430.75
2023-04-28T14:43:14.053Z,100427.44
2023-04-28T14:45:42.196Z,100431.13
2023-04-28T14:48:10.856Z,100424.22
2023-04-28T14:50:41.745Z,100420.63
2023-04-28T14:53:09.697Z,100418.81
2023-04-28T14:55:41.602Z,100404.25
2023-04-28T14:58:09.732Z,100411.25
2023-04-28T15:00:54.360Z,100427.53
2023-04-28T15:03:23.071Z,100424.97
2023-04-28T15:05:53.417Z,100426.19
2023-04-28T15:08:21.885Z,100429.22
2023-04-28T15:10:49.875Z,100421.09
2023-04-28T15:13:24.502Z,100422.06
2023-04-28T15:15:56.460Z,100412.59
2023-04-28T15:18:31.390Z,100414.66
2023-04-28T15:21:00.420Z,100415.03
2023-04-28T15:23:31.828Z,100408.03
2023-04-28T15:26:01.130Z,100425.63
2023-04-28T15:28:30.046Z,100422.22
2023-04-28T15:30:58.542Z,100415.44
2023-04-28T15:33:27.069Z,100416.56
2023-04-28T15:36:00.300Z,100412.22
2023-04-28T15:38:33.403Z,100415.44
2023-04-28T15:41:05.593Z,100410.41
2023-04-28T15:43:34.028Z,100429.41
2023-04-28T15:46:05.466Z,100424.72
2023-04-28T15:48:33.550Z,100426.19
2023-04-28T15:51:04.175Z,100424.78
2023-04-28T15:53:35.334Z,100425.66
2023-04-28T15:56:04.648Z,100423.00
2023-04-28T15:58:33.070Z,100422.44
2023-04-28T16:01:01.083Z,100416.56
2023-04-28T16:03:29.199Z,100415.03
2023-04-28T16:05:57.365Z,100420.06
2023-04-28T16:08:25.913Z,100420.63
2023-04-28T16:10:53.780Z,100430.38
2023-04-28T16:13:22.430Z,100431.38
2023-04-28T16:15:51.454Z,100433.75
2023-04-28T16:18:19.888Z,100431.31
2023-04-28T16:20:47.861Z,100433.28
2023-04-28T16:23:16.229Z,100441.91
2023-04-28T16:25:45.444Z,100429.09
2023-04-28T16:28:13.704Z,100432.91
2023-04-28T16:30:42.039Z,100440.84
2023-04-28T16:33:10.076Z,100436.75
2023-04-28T16:35:38.411Z,100435.81
2023-04-28T16:38:06.389Z,100434.13
2023-04-28T16:40:34.527Z,100433.75
2023-04-28T16:43:02.308Z,100430.34
2023-04-28T16:45:30.618Z,100432.41
2023-04-28T16:47:58.725Z,100435.81
2023-04-28T16:50:26.950Z,100430.97
2023-04-28T16:52:54.736Z,100423.59
2023-04-28T16:55:59.307Z,100437.84
2023-04-28T16:58:30.179Z,100424.06
2023-04-28T17:01:02.326Z,100434.72
2023-04-28T17:03:34.769Z,100437.44
2023-04-28T17:06:03.723Z,100435.94
2023-04-28T17:08:35.199Z,100436.09
2023-04-28T17:11:10.650Z,100435.94
2023-04-28T17:13:44.399Z,100448.38
2023-04-28T17:16:13.315Z,100452.16
2023-04-28T17:18:45.267Z,100433.25
2023-04-28T17:21:14.602Z,100449.88
2023-04-28T17:23:42.804Z,100455.06
2023-04-28T17:26:11.085Z,100454.41
2023-04-28T17:28:41.097Z,100449.38
2023-04-28T17:31:09.416Z,100458.66
2023-04-28T17:33:37.707Z,100459.00
2023-04-28T17:36:05.944Z,100463.25
2023-04-28T17:38:35.704Z,100472.31
2023-04-28T17:41:04.045Z,100471.38
2023-04-28T17:43:32.789Z,100482.88
2023-04-28T17:46:00.647Z,100474.66
2023-04-28T17:48:28.770Z,100477.50
2023-04-28T17:50:57.217Z,100474.69
2023-04-28T17:53:25.826Z,100482.47
2023-04-28T17:55:53.873Z,100486.97
2023-04-28T17:58:22.529Z,100489.81
2023-04-28T18:00:50.483Z,100495.25
2023-04-28T18:03:18.694Z,100493.72
2023-04-28T18:05:46.523Z,100496.72
2023-04-28T18:08:15.055Z,100492.03
2023-04-28T18:10:42.886Z,100503.34
2023-04-28T18:13:11.134Z,100496.53
2023-04-28T18:15:38.904Z,100483.41
2023-04-28T18:18:06.829Z,100495.94
2023-04-28T18:20:34.846Z,100490.69
2023-04-28T18:23:02.943Z,100494.38
2023-04-28T18:25:32.400Z,100495.84
2023-04-28T18:28:00.554Z,100489.81
2023-04-28T18:30:40.756Z,100497.75
2023-04-28T18:33:09.827Z,100493.44
2023-04-28T18:35:48.269Z,100478.09
2023-04-28T18:38:19.483Z,100491.22
2023-04-28T18:40:47.589Z,100485.28
2023-04-28T18:43:15.059Z,100484.38
2023-04-28T18:45:43.706Z,100482.19
2023-04-28T18:48:12.264Z,100481.31
2023-04-28T18:50:39.842Z,100474.19
2023-04-28T18:53:10.331Z,100478.25
2023-04-28T18:55:38.893Z,100473.06
2023-04-28T18:58:06.528Z,100471.59
2023-04-28T19:00:36.413Z,100478.59
2023-04-28T19:03:04.912Z,100469.06
2023-04-28T19:05:33.216Z,100474.16
2023-04-28T19:08:00.831Z,100474.34
2023-04-28T19:10:28.395Z,100474.50
2023-04-28T19:12:56.154Z,100473.63
2023-04-28T19:15:24.405Z,100474.66
2023-04-28T19:17:51.976Z,100477.97
2023-04-28T19:20:19.749Z,100476.56
2023-04-28T19:22:47.504Z,100487.03
2023-04-28T19:25:16.649Z,100481.66
2023-04-28T19:27:45.232Z,100490.00
2023-04-28T19:30:14.269Z,100489.75
2023-04-28T19:32:42.417Z,100488.00
2023-04-28T19:35:10.129Z,100485.66
2023-04-28T19:37:38.122Z,100487.97
2023-04-28T19:40:07.139Z,100481.97
2023-04-28T19:42:35.300Z,100480.38
2023-04-28T19:45:03.920Z,100477.28
2023-04-28T19:47:34.136Z,100479.84
2023-04-28T19:50:02.162Z,100480.19
2023-04-28T19:52:30.005Z,100475.09
2023-04-28T19:54:57.680Z,100476.56
2023-04-28T19:57:25.238Z,100476.88
2023-04-28T19:59:53.026Z,100472.53
2023-04-28T20:02:21.278Z,100473.53
2023-04-28T20:04:49.735Z,100474.66
2023-04-28T20:07:17.541Z,100470.22
2023-04-28T20:09:45.242Z,100474.56
2023-04-28T20:12:13.454Z,100470.38
2023-04-28T20:14:41.155Z,100474.97
2023-04-28T20:17:09.451Z,100469.69
2023-04-28T20:19:37.048Z,100469.53
2023-04-28T20:22:07.718Z,100469.59
2023-04-28T20:24:39.906Z,100469.28
2023-04-28T20:27:12.031Z,100468.59
2023-04-28T20:29:39.623Z,100473.00
2023-04-28T20:32:08.131Z,100468.84
2023-04-28T20:34:36.400Z,100465.09
2023-04-28T20:37:04.438Z,100466.44
2023-04-28T20:39:34.795Z,100475.81
2023-04-28T20:42:03.110Z,100475.97
2023-04-28T20:44:30.690Z,100481.09
2023-04-28T20:46:59.314Z,100483.44
2023-04-28T20:49:27.457Z,100487.38
2023-04-28T20:52:02.586Z,100476.81
2023-04-28T20:54:32.797Z,100486.28
2023-04-28T20:57:00.860Z,100482.03
2023-04-28T20:59:32.304Z,100485.09
2023-04-28T21:02:00.577Z,100485.94
2023-04-28T21:04:28.495Z,100493.53
2023-04-28T21:06:56.531Z,100487.25
2023-04-28T21:09:25.358Z,100487.34
2023-04-28T21:11:53.208Z,100484.63
2023-04-28T21:14:21.865Z,100487.88
2023-04-28T21:16:49.632Z,100490.75
2023-04-28T21:19:17.487Z,100493.91
2023-04-28T21:21:45.266Z,100494.63
2023-04-28T21:24:12.879Z,100483.41
2023-04-28T21:26:40.897Z,100491.22
2023-04-28T21:29:09.339Z,100493.38
2023-04-28T21:31:37.991Z,100486.50
2023-04-28T21:34:05.636Z,100484.25
2023-04-28T21:36:33.515Z,100486.81
2023-04-28T21:39:01.041Z,100484.38
2023-04-28T21:41:28.536Z,100479.97
2023-04-28T21:43:56.013Z,100487.03
2023-04-28T21:46:23.621Z,100486.09
2023-04-28T21:48:51.239Z,100480.19
2023-04-28T21:51:19.094Z,100485.94
2023-04-28T21:53:46.741Z,100488.41
2023-04-28T21:56:16.085Z,100484.22
2023-04-28T21:58:43.613Z,100480.91
2023-04-28T22:01:15.461Z,100480.72
2023-04-28T22:03:43.472Z,100480.72
2023-04-28T22:06:11.754Z,100473.81
2023-04-28T22:08:39.600Z,100475.84
2023-04-28T22:11:07.342Z,100477.63
2023-04-28T22:13:35.085Z,100486.50
2023-04-28T22:16:02.655Z,100488.91
2023-04-28T22:18:30.656Z,100479.75
2023-04-28T22:20:58.142Z,100482.25
2023-04-28T22:23:25.983Z,100482.28
2023-04-28T22:25:53.418Z,100482.06
2023-04-28T22:28:21.270Z,100472.84
2023-04-28T22:30:48.773Z,100473.00
2023-04-28T22:33:16.413Z,100475.50
2023-04-28T22:35:43.967Z,100468.25
2023-04-28T22:38:11.598Z,100477.28
2023-04-28T22:40:39.075Z,100467.59
2023-04-28T22:43:06.821Z,100477.28
2023-04-28T22:45:34.247Z,100467.81
2023-04-28T22:48:02.241Z,100465.25
2023-04-28T22:50:31.419Z,100465.03
2023-04-28T22:52:58.972Z,100464.72
2023-04-28T22:55:26.815Z,100473.69
2023-04-28T22:57:54.246Z,100459.81
2023-04-28T23:00:22.016Z,100473.69
2023-04-28T23:02:49.852Z,100470.31
2023-04-28T23:05:17.986Z,100471.06
2023-04-28T23:07:45.973Z,100466.88
2023-04-28T23:10:14.714Z,100462.44
2023-04-28T23:12:42.465Z,100476.88
2023-04-28T23:15:10.424Z,100475.91
2023-04-28T23:17:38.799Z,100481.09
2023-04-28T23:20:06.691Z,100486.03
2023-04-28T23:22:34.474Z,100492.16
2023-04-28T23:25:01.914Z,100488.59
2023-04-28T23:27:29.686Z,100494.81
2023-04-28T23:29:57.240Z,100492.94
2023-04-28T23:32:24.768Z,100488.06
2023-04-28T23:34:52.956Z,100487.97
2023-04-28T23:37:20.648Z,100480.69
2023-04-28T23:39:48.159Z,100471.63
2023-04-28T23:42:16.369Z,100483.91
2023-04-28T23:44:43.860Z,100483.91
2023-04-28T23:47:12.151Z,100490.03
2023-04-28T23:49:39.815Z,100494.97
2023-04-28T23:52:08.007Z,100486.28
2023-04-28T23:54:35.927Z,100483.09
2023-04-28T23:57:03.472Z,100479.38
2023-04-28T23:59:31.114Z,100481.56
